Time;durP1;ratioP1;P1;durP2;ratioP2;P2;SDS_P1;SDS_P2;PMS_P1;PMS_P2;Temp;Humidity;BMP_temperature;BMP_pressure;BME280_temperature;BME280_humidity;BME280_pressure;Samples;Min_cycle;Max_cycle;Signal;HPM_P1;HPM_P2
2023/07/21 00:01:05;;;;;;;5.75;2.97;;;13.70;99.90;;;;;;6161260;23;20044;-72
2023/07/21 00:03:32;;;;;;;5.00;2.50;;;13.60;99.90;;;;;;6187864;23;20017;-72
2023/07/21 00:05:59;;;;;;;5.32;3.13;;;13.70;99.90;;;;;;6161205;23;20017;-72
2023/07/21 00:08:28;;;;;;;6.57;3.20;;;13.60;99.90;;;;;;6187596;23;20016;-72
2023/07/21 00:10:56;;;;;;;7.00;3.22;;;13.70;99.90;;;;;;6161126;23;20017;-73
2023/07/21 00:13:22;;;;;;;6.75;3.53;;;13.60;99.90;;;;;;6161023;23;20099;-72
2023/07/21 00:15:49;;;;;;;7.68;3.42;;;13.60;99.90;;;;;;6161225;23;20049;-72
2023/07/21 00:18:15;;;;;;;8.38;3.80;;;13.60;99.90;;;;;;6187458;23;20389;-73
2023/07/21 00:20:41;;;;;;;5.03;3.55;;;13.60;99.90;;;;;;6187244;23;20025;-73
2023/07/21 00:23:06;;;;;;;7.00;3.90;;;13.50;99.90;;;;;;6161017;23;20067;-72
2023/07/21 00:25:32;;;;;;;11.68;4.93;;;13.50;99.90;;;;;;6161064;23;20349;-73
2023/07/21 00:28:00;;;;;;;6.15;4.25;;;13.60;99.90;;;;;;6187339;23;20100;-72
2023/07/21 00:30:26;;;;;;;8.25;4.00;;;13.50;99.90;;;;;;6160854;23;20009;-72
2023/07/21 00:32:52;;;;;;;9.50;4.70;;;13.50;99.90;;;;;;6187367;23;20335;-72
2023/07/21 00:35:17;;;;;;;7.85;4.63;;;13.50;99.90;;;;;;6160704;23;20071;-72
2023/07/21 00:37:43;;;;;;;6.82;4.53;;;13.50;99.90;;;;;;6160948;23;20397;-72
2023/07/21 00:40:18;;;;;;;8.85;4.97;;;13.50;99.90;;;;;;6160806;23;20066;-72
2023/07/21 00:42:47;;;;;;;9.55;4.47;;;13.50;99.90;;;;;;6187336;23;20017;-73
2023/07/21 00:45:14;;;;;;;10.15;4.10;;;13.50;99.90;;;;;;6160696;23;20017;-73
2023/07/21 00:47:43;;;;;;;11.50;4.85;;;13.50;99.90;;;;;;6187446;23;20020;-72
2023/07/21 00:50:11;;;;;;;6.80;4.10;;;13.40;99.90;;;;;;6160810;23;20356;-73
2023/07/21 00:52:37;;;;;;;10.07;4.10;;;13.40;99.90;;;;;;6160761;23;20021;-72
2023/07/21 00:55:04;;;;;;;9.18;4.20;;;13.40;99.90;;;;;;6160750;23;20009;-72
2023/07/21 00:57:31;;;;;;;8.30;4.13;;;13.30;99.90;;;;;;6160721;23;20053;-73
2023/07/21 00:59:57;;;;;;;8.02;4.28;;;13.30;99.90;;;;;;6160704;23;20425;-72
2023/07/21 01:02:23;;;;;;;7.07;4.10;;;13.30;99.90;;;;;;6160604;23;20020;-73
2023/07/21 01:04:49;;;;;;;7.28;4.45;;;13.30;99.90;;;;;;6160668;23;20060;-72
2023/07/21 01:07:15;;;;;;;6.45;4.30;;;13.30;99.90;;;;;;6160516;23;20487;-73
2023/07/21 01:09:43;;;;;;;10.20;4.53;;;13.20;99.90;;;;;;6186970;23;20441;-73
2023/07/21 01:12:09;;;;;;;6.68;4.00;;;13.30;99.90;;;;;;6187198;23;20092;-73
2023/07/21 01:14:37;;;;;;;9.20;4.20;;;13.30;99.90;;;;;;6160453;23;20449;-72
2023/07/21 01:17:06;;;;;;;9.85;4.20;;;13.30;99.90;;;;;;6160515;23;20394;-72
2023/07/21 01:19:32;;;;;;;8.00;4.03;;;13.30;99.90;;;;;;6186814;23;20504;-72
2023/07/21 01:22:10;;;;;;;5.93;3.63;;;13.30;99.90;;;;;;6186856;23;20021;-73
2023/07/21 01:24:44;;;;;;;6.07;3.20;;;13.30;99.90;;;;;;6160612;23;20096;-72
2023/07/21 01:27:11;;;;;;;5.70;3.72;;;13.30;99.90;;;;;;6187412;23;20445;-72
2023/07/21 01:29:40;;;;;;;6.65;3.42;;;13.30;99.90;;;;;;6160492;23;20024;-72
2023/07/21 01:32:10;;;;;;;7.85;3.85;;;13.20;99.90;;;;;;6160225;23;20409;-72
2023/07/21 01:34:38;;;;;;;7.45;4.20;;;13.30;99.90;;;;;;6160076;23;20024;-73
2023/07/21 01:37:07;;;;;;;7.95;4.60;;;13.30;99.90;;;;;;6160288;23;20021;-72
2023/07/21 01:39:35;;;;;;;7.22;3.67;;;13.30;99.90;;;;;;6160326;23;20025;-72
2023/07/21 01:42:02;;;;;;;8.93;4.20;;;13.30;99.90;;;;;;6160129;23;20021;-72
2023/07/21 01:44:28;;;;;;;9.48;4.32;;;13.30;99.90;;;;;;6159992;23;20013;-72
2023/07/21 01:46:54;;;;;;;7.50;4.10;;;13.40;99.90;;;;;;6160237;23;20031;-72
2023/07/21 01:49:20;;;;;;;7.82;3.83;;;13.40;99.90;;;;;;6160268;23;20042;-72
2023/07/21 01:51:47;;;;;;;5.50;3.70;;;13.40;99.90;;;;;;6186744;23;20071;-72
2023/07/21 01:54:52;;;;;;;8.50;4.40;;;13.40;99.90;;;;;;6160169;23;20020;-72
2023/07/21 01:57:24;;;;;;;8.52;3.65;;;13.50;99.90;;;;;;6141978;23;20021;-72
2023/07/21 01:59:50;;;;;;;8.30;3.53;;;13.50;99.90;;;;;;6160218;23;20341;-72
2023/07/21 02:02:18;;;;;;;6.90;3.10;;;13.50;99.90;;;;;;6160062;23;20025;-72
2023/07/21 02:04:53;;;;;;;5.75;3.20;;;13.50;99.90;;;;;;6160056;23;20345;-72
2023/07/21 02:07:22;;;;;;;5.50;3.50;;;13.50;99.90;;;;;;6186933;23;20025;-72
2023/07/21 02:09:50;;;;;;;5.13;3.35;;;13.40;99.90;;;;;;6160039;23;20016;-72
2023/07/21 02:12:15;;;;;;;6.78;3.75;;;13.50;99.90;;;;;;6159848;23;20384;-72
2023/07/21 02:14:41;;;;;;;5.80;3.35;;;13.50;99.90;;;;;;6160062;23;20459;-73
2023/07/21 02:17:07;;;;;;;6.90;4.00;;;13.50;99.90;;;;;;6186305;23;20042;-72
2023/07/21 02:19:32;;;;;;;8.82;3.50;;;13.50;99.90;;;;;;6159941;23;20345;-72
2023/07/21 02:21:58;;;;;;;7.07;3.13;;;13.50;99.90;;;;;;6159905;23;20021;-72
2023/07/21 02:24:24;;;;;;;6.35;3.42;;;13.50;99.90;;;;;;6186578;23;20021;-72
2023/07/21 02:26:50;;;;;;;10.85;3.45;;;13.50;99.90;;;;;;6186583;23;20013;-72
2023/07/21 02:29:16;;;;;;;6.93;3.38;;;13.50;99.90;;;;;;6159809;23;20393;-73
2023/07/21 02:31:45;;;;;;;5.53;3.20;;;13.50;99.90;;;;;;6159657;23;20453;-72
2023/07/21 02:34:11;;;;;;;5.90;3.25;;;13.50;99.90;;;;;;6159820;23;20021;-72
2023/07/21 02:36:37;;;;;;;5.15;3.05;;;13.50;99.90;;;;;;6159865;23;20025;-72
2023/07/21 02:39:04;;;;;;;4.97;2.88;;;13.50;99.90;;;;;;6159904;23;20100;-72
2023/07/21 02:41:30;;;;;;;4.55;2.78;;;13.50;99.90;;;;;;6186161;23;20028;-73
2023/07/21 02:43:56;;;;;;;4.60;2.50;;;13.50;99.90;;;;;;6186218;23;20021;-73
2023/07/21 02:46:21;;;;;;;8.75;3.63;;;13.50;99.90;;;;;;6159848;23;20377;-72
2023/07/21 02:48:47;;;;;;;7.65;2.80;;;13.50;99.90;;;;;;6159731;23;20017;-72
2023/07/21 02:51:13;;;;;;;7.00;3.15;;;13.50;99.90;;;;;;6159829;23;20056;-72
2023/07/21 02:53:39;;;;;;;5.43;2.63;;;13.40;99.90;;;;;;6159419;23;20047;-72
2023/07/21 02:56:07;;;;;;;5.35;2.90;;;13.40;99.90;;;;;;6159642;23;20013;-72
2023/07/21 02:58:33;;;;;;;7.57;3.45;;;13.40;99.90;;;;;;6159539;23;20123;-72
2023/07/21 03:01:03;;;;;;;7.90;3.05;;;13.50;99.90;;;;;;6159539;23;20391;-72
2023/07/21 03:03:29;;;;;;;7.88;3.35;;;13.50;99.90;;;;;;6186025;23;20028;-72
2023/07/21 03:05:54;;;;;;;6.90;3.03;;;13.50;99.90;;;;;;6159740;23;20048;-72
2023/07/21 03:08:26;;;;;;;6.63;3.05;;;13.40;99.90;;;;;;6185995;23;20083;-72
2023/07/21 03:10:56;;;;;;;7.60;3.40;;;13.50;99.90;;;;;;6159616;23;20013;-72
2023/07/21 03:13:24;;;;;;;6.40;3.33;;;13.40;99.90;;;;;;6159439;23;20044;-72
2023/07/21 03:15:53;;;;;;;7.78;4.00;;;13.40;99.90;;;;;;6159559;23;20017;-72
2023/07/21 03:18:19;;;;;;;7.65;3.72;;;13.40;99.90;;;;;;6159584;23;20349;-73
2023/07/21 03:20:45;;;;;;;9.00;3.42;;;13.40;99.90;;;;;;6159544;23;20013;-73
2023/07/21 03:23:11;;;;;;;8.13;3.90;;;13.40;99.90;;;;;;6185862;23;20013;-73
2023/07/21 03:25:46;;;;;;;7.20;3.50;;;13.30;99.90;;;;;;6159350;23;20056;-73
2023/07/21 03:28:11;;;;;;;5.78;3.15;;;13.30;99.90;;;;;;6185760;23;20449;-72
2023/07/21 03:30:37;;;;;;;8.10;3.65;;;13.30;99.90;;;;;;6185777;23;20033;-72
2023/07/21 03:33:03;;;;;;;5.97;3.63;;;13.30;99.90;;;;;;6158996;23;20021;-72
2023/07/21 03:35:29;;;;;;;8.23;4.00;;;13.30;99.90;;;;;;6184084;23;20365;-73
2023/07/21 03:37:57;;;;;;;7.28;4.20;;;13.30;99.90;;;;;;6184963;23;20024;-72
2023/07/21 03:40:23;;;;;;;7.93;4.32;;;13.40;99.90;;;;;;6159164;23;20052;-72
2023/07/21 03:42:49;;;;;;;8.90;4.40;;;13.40;99.90;;;;;;6186060;23;20067;-72
2023/07/21 03:45:14;;;;;;;11.07;4.55;;;13.40;99.90;;;;;;6185656;23;20010;-72
2023/07/21 03:47:40;;;;;;;8.05;4.70;;;13.40;99.90;;;;;;6159434;23;20067;-72
2023/07/21 03:50:08;;;;;;;8.05;4.43;;;13.40;99.90;;;;;;6159363;23;20022;-73
2023/07/21 03:52:33;;;;;;;8.75;4.38;;;13.40;99.90;;;;;;6185608;23;20445;-72
2023/07/21 03:54:59;;;;;;;7.20;4.28;;;13.40;99.90;;;;;;6159247;23;20057;-72
2023/07/21 03:57:25;;;;;;;8.45;4.28;;;13.50;99.90;;;;;;6159146;23;20017;-72
2023/07/21 03:59:52;;;;;;;7.55;4.00;;;13.50;99.90;;;;;;6159333;23;20036;-73
2023/07/21 04:02:18;;;;;;;10.02;4.07;;;13.50;99.90;;;;;;6159482;23;20037;-72
2023/07/21 04:04:45;;;;;;;8.57;4.30;;;13.50;99.90;;;;;;6159626;23;20013;-72
2023/07/21 04:07:11;;;;;;;7.22;4.35;;;13.60;99.90;;;;;;6160503;23;20024;-72
2023/07/21 04:09:37;;;;;;;6.53;3.60;;;13.60;99.90;;;;;;6160941;23;20437;-72
2023/07/21 04:12:07;;;;;;;8.48;4.35;;;13.60;99.90;;;;;;6160948;23;20020;-72
2023/07/21 04:14:33;;;;;;;7.53;4.20;;;13.70;99.90;;;;;;6160995;23;20028;-72
2023/07/21 04:16:59;;;;;;;7.43;3.90;;;13.70;99.90;;;;;;6160951;23;20029;-72
2023/07/21 04:19:25;;;;;;;7.00;3.90;;;13.70;99.90;;;;;;6187683;23;20392;-72
2023/07/21 04:21:52;;;;;;;6.75;3.47;;;13.70;99.90;;;;;;6187333;23;20032;-72
2023/07/21 04:24:18;;;;;;;7.82;3.70;;;13.70;99.90;;;;;;6160904;23;20013;-72
2023/07/21 04:26:43;;;;;;;6.47;3.63;;;13.80;99.90;;;;;;6160908;23;20319;-72
2023/07/21 04:29:09;;;;;;;8.45;4.10;;;13.90;99.90;;;;;;6187346;23;20346;-72
2023/07/21 04:31:35;;;;;;;7.47;4.13;;;13.90;99.90;;;;;;6160952;23;20024;-72
2023/07/21 04:34:00;;;;;;;7.82;4.03;;;13.90;99.90;;;;;;6187467;23;20329;-72
2023/07/21 04:36:28;;;;;;;9.13;4.20;;;13.90;99.90;;;;;;6160609;23;20369;-72
2023/07/21 04:38:55;;;;;;;8.25;4.47;;;13.90;99.90;;;;;;6160760;23;20029;-72
2023/07/21 04:41:21;;;;;;;8.85;4.97;;;13.90;99.90;;;;;;6161091;23;20024;-72
2023/07/21 04:43:46;;;;;;;6.70;4.13;;;14.00;99.90;;;;;;6160749;23;20353;-72
2023/07/21 04:46:13;;;;;;;6.15;4.05;;;14.00;99.90;;;;;;6187463;23;20067;-73
2023/07/21 04:48:39;;;;;;;8.32;4.22;;;14.00;99.90;;;;;;6187344;23;20021;-72
2023/07/21 04:51:04;;;;;;;8.77;3.92;;;14.00;99.90;;;;;;6187309;23;20013;-72
2023/07/21 04:53:30;;;;;;;6.93;4.20;;;14.10;99.90;;;;;;6186903;23;20028;-72
2023/07/21 04:55:57;;;;;;;11.27;4.40;;;14.10;99.90;;;;;;6186932;23;20025;-72
2023/07/21 04:58:24;;;;;;;8.35;4.50;;;14.10;99.90;;;;;;6160681;23;20088;-73
2023/07/21 05:00:49;;;;;;;8.88;4.43;;;14.20;99.90;;;;;;6161002;23;20505;-72
2023/07/21 05:03:15;;;;;;;7.82;4.25;;;14.20;99.90;;;;;;6160533;23;20044;-72
2023/07/21 05:05:41;;;;;;;10.75;4.50;;;14.20;99.90;;;;;;6160493;23;20036;-72
2023/07/21 05:08:09;;;;;;;8.85;4.45;;;14.30;99.90;;;;;;6160574;23;20013;-72
2023/07/21 05:10:35;;;;;;;6.55;3.65;;;14.30;99.90;;;;;;6186593;23;20400;-72
2023/07/21 05:13:01;;;;;;;7.85;4.10;;;14.30;99.90;;;;;;6160000;23;20449;-72
2023/07/21 05:15:26;;;;;;;8.55;4.35;;;14.30;99.90;;;;;;6160511;23;20017;-72
2023/07/21 05:17:52;;;;;;;8.23;4.40;;;14.40;99.90;;;;;;6160405;23;20024;-72
2023/07/21 05:20:20;;;;;;;11.20;4.30;;;14.30;99.90;;;;;;6160526;23;20013;-72
2023/07/21 05:22:46;;;;;;;8.23;4.15;;;14.40;99.90;;;;;;6187142;23;20009;-72
2023/07/21 05:25:17;;;;;;;7.53;3.55;;;14.40;99.90;;;;;;6160531;23;20019;-72
2023/07/21 05:27:46;;;;;;;8.80;4.43;;;14.40;99.90;;;;;;6160251;23;20072;-72
2023/07/21 05:30:13;;;;;;;8.40;3.80;;;14.40;99.90;;;;;;6160564;23;20021;-72
2023/07/21 05:32:41;;;;;;;9.40;3.67;;;14.50;99.90;;;;;;6160337;23;20346;-72
2023/07/21 05:35:10;;;;;;;8.02;3.58;;;14.50;99.90;;;;;;6186232;23;20017;-72
2023/07/21 05:37:36;;;;;;;7.15;3.70;;;14.70;99.90;;;;;;6160373;23;20089;-72
2023/07/21 05:40:03;;;;;;;7.35;3.40;;;14.70;99.90;;;;;;6160261;23;20044;-72
2023/07/21 05:42:29;;;;;;;8.00;3.80;;;14.70;99.90;;;;;;6160292;23;20023;-72
2023/07/21 05:44:55;;;;;;;8.27;4.20;;;14.80;99.90;;;;;;6186536;23;20100;-72
2023/07/21 05:47:21;;;;;;;8.73;3.67;;;14.90;99.90;;;;;;6160091;23;20024;-72
2023/07/21 05:49:49;;;;;;;7.18;4.00;;;14.90;99.90;;;;;;6186475;23;20017;-71
2023/07/21 05:52:15;;;;;;;11.52;5.05;;;15.00;99.90;;;;;;6160143;23;20048;-72
2023/07/21 05:54:41;;;;;;;7.90;4.05;;;15.00;99.90;;;;;;6160164;23;20021;-72
2023/07/21 05:57:07;;;;;;;8.73;4.35;;;15.00;99.90;;;;;;6160082;23;20017;-72
2023/07/21 05:59:33;;;;;;;7.55;4.40;;;15.10;99.90;;;;;;6159965;23;20047;-72
2023/07/21 06:01:59;;;;;;;6.28;3.83;;;15.10;99.90;;;;;;6160033;23;20447;-72
2023/07/21 06:04:25;;;;;;;6.35;3.65;;;15.20;99.90;;;;;;6186701;23;20016;-72
2023/07/21 06:06:51;;;;;;;7.82;4.43;;;15.20;99.90;;;;;;6159928;23;20472;-72
2023/07/21 06:09:17;;;;;;;9.68;4.47;;;15.30;99.90;;;;;;6159951;23;20021;-72
2023/07/21 06:11:43;;;;;;;7.70;4.32;;;15.40;99.90;;;;;;6186156;23;20017;-72
2023/07/21 06:14:08;;;;;;;10.65;5.03;;;15.40;99.90;;;;;;6159990;23;20024;-72
2023/07/21 06:16:34;;;;;;;8.23;5.30;;;15.40;99.90;;;;;;6159719;23;20017;-72
2023/07/21 06:19:00;;;;;;;10.05;5.22;;;15.40;99.90;;;;;;6186457;23;20020;-72
2023/07/21 06:21:26;;;;;;;10.30;4.63;;;15.50;99.90;;;;;;6159708;23;20096;-72
2023/07/21 06:23:53;;;;;;;8.52;5.00;;;15.60;99.90;;;;;;6159800;23;20460;-71
2023/07/21 06:26:19;;;;;;;11.68;6.32;;;15.60;99.90;;;;;;6159850;23;20024;-72
2023/07/21 06:28:45;;;;;;;10.70;5.50;;;15.70;99.90;;;;;;6159688;23;20053;-72
2023/07/21 06:31:11;;;;;;;8.65;5.38;;;15.80;99.90;;;;;;6186356;23;20044;-72
2023/07/21 06:33:38;;;;;;;10.20;5.43;;;15.90;99.90;;;;;;6159475;23;20344;-72
2023/07/21 06:36:04;;;;;;;8.60;5.10;;;15.90;99.90;;;;;;6159407;23;20075;-72
2023/07/21 06:38:33;;;;;;;8.25;5.07;;;16.00;99.90;;;;;;6160392;23;20546;-72
2023/07/21 06:41:00;;;;;;;8.18;4.82;;;16.00;99.90;;;;;;6159679;23;20024;-71
2023/07/21 06:43:26;;;;;;;9.02;4.95;;;16.00;99.90;;;;;;6159675;23;20025;-72
2023/07/21 06:45:52;;;;;;;10.02;4.57;;;16.10;99.90;;;;;;6159605;23;20096;-72
2023/07/21 06:48:18;;;;;;;7.28;4.88;;;16.00;99.90;;;;;;6186024;23;20037;-71
2023/07/21 06:50:44;;;;;;;11.15;4.70;;;16.00;99.90;;;;;;6159499;23;20020;-72
2023/07/21 06:53:09;;;;;;;8.85;4.20;;;16.10;99.90;;;;;;6159515;23;20031;-71
2023/07/21 06:55:36;;;;;;;9.95;5.35;;;16.20;99.90;;;;;;6159690;23;20451;-72
2023/07/21 06:58:02;;;;;;;8.02;5.18;;;16.20;99.90;;;;;;6159572;23;20071;-72
2023/07/21 07:00:27;;;;;;;12.20;5.07;;;16.20;99.90;;;;;;6159621;23;20020;-72
2023/07/21 07:02:56;;;;;;;10.55;4.95;;;16.20;99.90;;;;;;6159509;23;20028;-71
2023/07/21 07:05:23;;;;;;;8.55;4.90;;;16.30;99.90;;;;;;6158852;23;20076;-72
2023/07/21 07:07:53;;;;;;;9.32;5.03;;;16.30;99.90;;;;;;6159048;23;20028;-71
2023/07/21 07:10:22;;;;;;;8.00;5.20;;;16.30;99.90;;;;;;6159373;23;20023;-71
2023/07/21 07:12:47;;;;;;;10.07;5.60;;;16.30;99.90;;;;;;6185757;23;20047;-73
2023/07/21 07:15:13;;;;;;;7.80;4.65;;;16.30;99.90;;;;;;6159110;23;20013;-72
2023/07/21 07:17:39;;;;;;;9.75;4.95;;;16.40;99.90;;;;;;6159168;23;20028;-72
2023/07/21 07:20:07;;;;;;;9.45;5.13;;;16.40;99.90;;;;;;6159634;23;20025;-73
2023/07/21 07:22:33;;;;;;;8.80;5.50;;;16.50;99.90;;;;;;6159303;23;20024;-73
2023/07/21 07:24:59;;;;;;;8.45;4.55;;;16.50;99.90;;;;;;6159556;23;20028;-72
2023/07/21 07:27:24;;;;;;;8.43;4.65;;;16.60;99.90;;;;;;6159533;23;20021;-71
2023/07/21 07:29:50;;;;;;;9.35;5.00;;;16.70;99.90;;;;;;6159413;23;20389;-71
2023/07/21 07:32:16;;;;;;;9.35;5.10;;;16.90;99.90;;;;;;6159375;23;20017;-71
2023/07/21 07:34:42;;;;;;;8.18;5.43;;;17.00;99.90;;;;;;6159722;23;20021;-71
2023/07/21 07:37:08;;;;;;;7.93;4.85;;;17.20;99.90;;;;;;6185318;23;20017;-74
2023/07/21 07:39:35;;;;;;;7.93;5.40;;;17.30;99.90;;;;;;6159107;23;20480;-72
2023/07/21 07:42:01;;;;;;;9.57;5.20;;;17.30;99.90;;;;;;6160184;23;20021;-72
2023/07/21 07:44:26;;;;;;;7.63;4.20;;;17.40;99.90;;;;;;6187500;23;20017;-72
2023/07/21 07:46:55;;;;;;;7.85;4.65;;;17.40;99.90;;;;;;6161030;23;20017;-71
2023/07/21 07:49:21;;;;;;;7.40;4.20;;;17.40;99.90;;;;;;6187612;23;20040;-71
2023/07/21 07:51:48;;;;;;;9.15;5.20;;;17.40;99.90;;;;;;6160990;23;20434;-72
2023/07/21 07:54:14;;;;;;;11.05;5.38;;;17.40;99.90;;;;;;6160940;23;20048;-73
2023/07/21 07:56:40;;;;;;;10.05;5.70;;;17.60;99.90;;;;;;6187693;23;20469;-72
2023/07/21 07:59:13;;;;;;;7.25;4.15;;;17.60;99.90;;;;;;6160944;23;20112;-72
2023/07/21 08:01:38;;;;;;;6.30;3.80;;;17.70;99.90;;;;;;6187701;23;20088;-72
2023/07/21 08:04:04;;;;;;;9.10;3.65;;;17.80;99.90;;;;;;6160987;23;20052;-72
2023/07/21 08:06:32;;;;;;;7.93;4.68;;;17.80;99.90;;;;;;6160935;23;20055;-71
2023/07/21 08:08:57;;;;;;;12.82;5.57;;;17.80;99.90;;;;;;6160777;23;20017;-71
2023/07/21 08:11:23;;;;;;;7.38;4.45;;;17.80;99.90;;;;;;6160960;23;20032;-71
2023/07/21 08:13:49;;;;;;;7.90;5.10;;;17.80;99.90;;;;;;6160753;23;20013;-71
2023/07/21 08:16:15;;;;;;;7.70;4.45;;;17.80;99.90;;;;;;6160893;23;20101;-71
2023/07/21 08:18:41;;;;;;;8.43;4.88;;;17.90;99.90;;;;;;6160833;23;20056;-71
2023/07/21 08:21:26;;;;;;;10.70;5.32;;;18.00;99.90;;;;;;6187504;23;20059;-73
2023/07/21 08:23:52;;;;;;;6.55;4.20;;;18.10;99.90;;;;;;6187419;23;20013;-72
2023/07/21 08:26:18;;;;;;;7.40;3.70;;;18.10;99.90;;;;;;6160807;23;20048;-71
2023/07/21 08:28:44;;;;;;;7.03;4.00;;;18.10;99.90;;;;;;6187129;23;20337;-71
2023/07/21 08:31:10;;;;;;;7.20;4.20;;;18.20;99.90;;;;;;6160651;23;20334;-72
2023/07/21 08:33:36;;;;;;;6.25;4.05;;;18.20;99.90;;;;;;6160484;23;20353;-73
2023/07/21 08:36:02;;;;;;;5.85;3.97;;;18.20;99.90;;;;;;6160419;23;20383;-72
2023/07/21 08:38:28;;;;;;;9.07;5.00;;;18.10;99.90;;;;;;6160635;23;20036;-72
2023/07/21 08:41:20;;;;;;;7.60;5.00;;;18.10;99.90;;;;;;6160592;23;20017;-72
2023/07/21 08:43:48;;;;;;;8.50;5.03;;;18.10;99.90;;;;;;6155695;23;20467;-71
2023/07/21 08:46:15;;;;;;;6.65;4.55;;;18.10;99.90;;;;;;6160779;23;20464;-72
2023/07/21 08:48:41;;;;;;;6.95;4.53;;;18.20;99.90;;;;;;6160603;23;20022;-73
2023/07/21 08:51:07;;;;;;;5.82;4.43;;;18.30;99.90;;;;;;6160865;23;20043;-72
2023/07/21 08:53:33;;;;;;;9.30;5.28;;;18.60;99.90;;;;;;6160185;23;20021;-73
2023/07/21 08:56:00;;;;;;;6.72;4.65;;;18.70;99.90;;;;;;6160612;23;20028;-72
2023/07/21 08:58:28;;;;;;;6.60;4.45;;;18.70;99.90;;;;;;6187412;23;20039;-72
2023/07/21 09:00:55;;;;;;;6.72;4.20;;;18.80;99.90;;;;;;6160566;23;20019;-72
2023/07/21 09:03:22;;;;;;;6.97;4.97;;;18.90;99.90;;;;;;6160394;23;20028;-72
2023/07/21 09:05:48;;;;;;;6.38;4.13;;;19.20;99.90;;;;;;6160568;23;20075;-71
2023/07/21 09:08:28;;;;;;;7.45;5.38;;;19.30;99.90;;;;;;6160891;23;20346;-72
2023/07/21 09:11:01;;;;;;;7.20;5.00;;;19.70;99.90;;;;;;6160805;23;20017;-72
2023/07/21 09:13:28;;;;;;;9.00;6.28;;;20.00;99.90;;;;;;6160380;23;20079;-72
2023/07/21 09:15:55;;;;;;;6.68;4.63;;;19.90;99.90;;;;;;6160323;23;20019;-72
2023/07/21 09:18:35;;;;;;;7.07;4.95;;;20.00;99.90;;;;;;6160446;23;20061;-72
2023/07/21 09:21:01;;;;;;;8.32;5.28;;;19.90;99.90;;;;;;6160495;23;20021;-72
2023/07/21 09:23:29;;;;;;;7.13;4.90;;;20.10;99.90;;;;;;6160422;23;20025;-72
2023/07/21 09:25:56;;;;;;;6.93;5.05;;;20.00;99.90;;;;;;6160470;23;20077;-73
2023/07/21 09:28:40;;;;;;;10.38;6.18;;;20.10;99.90;;;;;;6160470;23;20028;-73
2023/07/21 09:31:07;;;;;;;7.05;5.32;;;20.20;99.90;;;;;;6160417;23;20021;-74
2023/07/21 09:33:37;;;;;;;8.20;5.40;;;20.20;99.90;;;;;;6186913;23;20096;-74
2023/07/21 09:36:09;;;;;;;9.93;5.60;;;20.40;99.90;;;;;;6160061;23;20103;-73
2023/07/21 09:38:36;;;;;;;8.65;6.05;;;20.10;99.90;;;;;;6160157;23;20091;-73
2023/07/21 09:41:13;;;;;;;10.88;6.07;;;20.00;99.90;;;;;;6160248;23;20028;-73
2023/07/21 09:43:40;;;;;;;14.13;6.82;;;19.80;99.90;;;;;;6186997;23;20024;-73
2023/07/21 09:46:07;;;;;;;26.77;9.02;;;19.70;99.90;;;;;;6160255;23;20095;-75
2023/07/21 09:48:35;;;;;;;14.35;6.97;;;19.50;99.90;;;;;;6160004;23;20095;-74
2023/07/21 09:51:03;;;;;;;11.77;7.00;;;19.30;99.90;;;;;;6160021;23;20449;-73
2023/07/21 09:53:34;;;;;;;8.75;6.15;;;19.20;99.90;;;;;;6160010;23;20468;-73
2023/07/21 09:56:01;;;;;;;10.57;6.35;;;18.70;99.90;;;;;;6160176;23;20088;-73
2023/07/21 09:58:29;;;;;;;8.73;5.85;;;18.50;99.90;;;;;;6160084;23;20016;-73
2023/07/21 10:01:00;;;;;;;8.30;6.28;;;18.40;99.90;;;;;;6186748;23;20024;-73
2023/07/21 10:03:27;;;;;;;9.15;6.80;;;18.40;99.90;;;;;;6159841;23;20091;-73
2023/07/21 10:05:53;;;;;;;8.90;6.20;;;18.30;99.90;;;;;;6159796;23;20084;-73
2023/07/21 10:08:21;;;;;;;10.10;6.60;;;18.30;99.90;;;;;;6160090;23;20025;-73
2023/07/21 10:10:47;;;;;;;10.40;6.40;;;18.40;99.90;;;;;;6186611;23;20013;-73
2023/07/21 10:13:13;;;;;;;9.52;6.47;;;18.50;99.90;;;;;;6159867;23;20024;-73
2023/07/21 10:15:41;;;;;;;9.77;5.72;;;18.40;99.90;;;;;;6159959;23;20092;-73
2023/07/21 10:18:11;;;;;;;7.72;5.93;;;18.30;99.90;;;;;;6159789;23;20453;-73
2023/07/21 10:20:51;;;;;;;10.63;6.05;;;18.30;99.90;;;;;;6159828;23;20045;-73
2023/07/21 10:23:38;;;;;;;8.55;5.72;;;18.30;99.90;;;;;;6159850;23;20445;-73
2023/07/21 10:26:08;;;;;;;8.15;6.53;;;18.40;99.90;;;;;;6159856;23;20017;-73
2023/07/21 10:28:41;;;;;;;13.13;6.20;;;18.50;99.90;;;;;;6159794;23;20017;-73
2023/07/21 10:31:23;;;;;;;9.35;6.38;;;18.40;99.90;;;;;;6159875;23;20052;-73
2023/07/21 10:34:11;;;;;;;9.70;5.68;;;18.40;99.90;;;;;;6159480;23;20024;-73
2023/07/21 10:36:55;;;;;;;8.27;5.57;;;18.70;99.90;;;;;;6159562;23;20021;-73
2023/07/21 10:39:27;;;;;;;6.28;4.40;;;18.80;99.90;;;;;;6186193;23;20025;-76
2023/07/21 10:41:56;;;;;;;8.00;4.82;;;18.90;99.90;;;;;;6159657;23;20052;-78
2023/07/21 10:44:22;;;;;;;7.15;4.35;;;19.00;99.90;;;;;;6159717;23;20021;-76
2023/07/21 10:46:53;;;;;;;7.05;4.40;;;19.00;99.90;;;;;;6186287;23;20031;-77
2023/07/21 10:49:19;;;;;;;6.45;4.13;;;19.00;99.90;;;;;;6160094;23;20023;-76
2023/07/21 10:51:47;;;;;;;8.60;3.83;;;18.80;99.90;;;;;;6159586;23;20109;-74
2023/07/21 10:54:14;;;;;;;7.25;4.82;;;18.70;99.90;;;;;;6159370;23;20028;-73
2023/07/21 10:56:48;;;;;;;7.97;5.15;;;18.50;99.90;;;;;;6159437;23;20337;-75
2023/07/21 10:59:24;;;;;;;8.60;4.28;;;18.20;99.90;;;;;;6159478;23;20071;-76
2023/07/21 11:01:54;;;;;;;7.50;4.05;;;17.90;99.90;;;;;;6159420;23;20106;-78
2023/07/21 11:04:21;;;;;;;8.50;4.50;;;17.50;99.90;;;;;;6159489;23;20071;-74
2023/07/21 11:06:53;;;;;;;6.57;3.20;;;17.20;99.90;;;;;;6159539;23;20017;-73
2023/07/21 11:09:22;;;;;;;6.37;3.67;;;17.10;99.90;;;;;;6159583;23;20088;-77
2023/07/21 11:11:50;;;;;;;5.78;3.80;;;17.00;99.90;;;;;;6159446;23;20049;-73
2023/07/21 11:14:26;;;;;;;6.75;4.03;;;17.00;99.90;;;;;;6186184;23;20052;-74
2023/07/21 11:16:57;;;;;;;6.40;4.18;;;17.00;99.90;;;;;;6162650;23;20088;-73
2023/07/21 11:19:28;;;;;;;7.15;2.88;;;17.00;99.90;;;;;;6162687;23;20020;-73
2023/07/21 11:21:54;;;;;;;5.65;2.60;;;17.00;99.90;;;;;;6162519;23;20024;-73
2023/07/21 11:24:25;;;;;;;10.02;2.83;;;17.00;99.90;;;;;;6162667;23;20031;-73
2023/07/21 11:26:54;;;;;;;11.00;3.67;;;16.90;99.90;;;;;;6162694;23;20095;-73
2023/07/21 11:29:20;;;;;;;8.73;2.70;;;16.90;99.90;;;;;;6189450;23;20059;-74
2023/07/21 11:31:46;;;;;;;6.28;3.05;;;16.80;99.90;;;;;;6189476;23;20369;-75
2023/07/21 11:34:21;;;;;;;10.05;3.28;;;16.70;99.90;;;;;;6162630;23;20025;-74
2023/07/21 11:36:50;;;;;;;8.43;2.85;;;16.70;99.90;;;;;;6162476;23;20021;-75
2023/07/21 11:39:31;;;;;;;9.30;3.22;;;16.70;99.90;;;;;;6162516;23;20036;-75
2023/07/21 11:41:58;;;;;;;7.72;2.97;;;16.60;99.90;;;;;;6162644;23;20021;-74
2023/07/21 11:44:30;;;;;;;8.82;2.80;;;16.60;99.90;;;;;;6162630;23;20095;-75
2023/07/21 11:47:10;;;;;;;6.93;3.00;;;16.60;99.90;;;;;;6162458;23;20020;-74
2023/07/21 11:49:44;;;;;;;6.72;3.10;;;16.50;99.90;;;;;;6162621;23;20017;-74
2023/07/21 11:52:22;;;;;;;6.68;3.17;;;16.50;99.90;;;;;;6162420;23;20017;-74
2023/07/21 11:54:48;;;;;;;9.40;3.30;;;16.50;99.90;;;;;;6188910;23;20361;-74
2023/07/21 11:57:13;;;;;;;9.50;3.38;;;16.50;99.90;;;;;;6162453;23;20024;-74
2023/07/21 11:59:39;;;;;;;5.30;2.72;;;16.40;99.90;;;;;;6188932;23;20017;-73
2023/07/21 12:02:06;;;;;;;5.85;3.30;;;16.50;99.90;;;;;;6160934;23;20066;-74
2023/07/21 12:04:33;;;;;;;8.43;3.17;;;16.50;99.90;;;;;;6162316;23;20028;-74
2023/07/21 12:07:00;;;;;;;7.65;3.72;;;16.60;99.90;;;;;;6162637;23;20017;-73
2023/07/21 12:09:26;;;;;;;5.32;3.15;;;16.60;99.90;;;;;;6189246;23;20064;-73
2023/07/21 12:11:56;;;;;;;6.25;2.85;;;16.60;99.90;;;;;;6162567;23;20059;-74
2023/07/21 12:14:24;;;;;;;7.80;2.97;;;16.70;99.90;;;;;;6189216;23;20071;-74
2023/07/21 12:16:50;;;;;;;7.18;3.22;;;16.70;99.90;;;;;;6162425;23;20009;-74
2023/07/21 12:19:16;;;;;;;5.82;3.40;;;16.70;99.90;;;;;;6162520;23;20021;-74
2023/07/21 12:21:41;;;;;;;6.28;3.60;;;16.70;99.90;;;;;;6162465;23;20044;-73
2023/07/21 12:24:10;;;;;;;5.35;3.28;;;16.80;99.90;;;;;;6160716;23;20044;-74
2023/07/21 12:26:35;;;;;;;6.32;3.17;;;16.80;99.90;;;;;;6161782;23;20028;-74
2023/07/21 12:29:01;;;;;;;7.65;3.30;;;16.80;99.90;;;;;;6187262;23;20029;-74
2023/07/21 12:31:27;;;;;;;6.05;3.63;;;16.80;99.90;;;;;;6160649;23;20019;-73
2023/07/21 12:33:52;;;;;;;6.05;3.30;;;16.80;99.90;;;;;;6160832;23;20025;-77
2023/07/21 12:36:19;;;;;;;6.03;3.13;;;16.80;99.90;;;;;;6160686;23;20021;-73
2023/07/21 12:38:46;;;;;;;5.97;3.20;;;16.80;99.90;;;;;;6160819;23;20025;-73
2023/07/21 12:41:12;;;;;;;7.70;3.47;;;16.80;99.90;;;;;;6160794;23;20025;-73
2023/07/21 12:43:38;;;;;;;6.50;3.35;;;16.80;99.90;;;;;;6160844;23;20024;-72
2023/07/21 12:46:05;;;;;;;7.18;3.22;;;16.70;99.90;;;;;;6160696;23;20021;-73
2023/07/21 12:48:32;;;;;;;6.53;3.33;;;16.70;99.90;;;;;;6186981;23;20025;-73